createdAt,value
2023-03-05T00:05:59.216Z,186.83
2023-03-05T00:16:05.643Z,187.97
2023-03-05T00:26:10.652Z,188.87
2023-03-05T00:36:14.856Z,193.97
2023-03-05T00:46:19.955Z,188.80
2023-03-05T00:56:23.584Z,185.43
2023-03-05T01:06:29.517Z,187.43
2023-03-05T01:16:33.080Z,187.07
2023-03-05T01:26:37.991Z,193.37
2023-03-05T01:36:43.159Z,188.53
2023-03-05T01:46:48.032Z,180.73
2023-03-05T01:56:55.590Z,186.67
2023-03-05T02:07:01.251Z,185.90
2023-03-05T02:17:04.856Z,184.00
2023-03-05T02:27:10.099Z,183.33
2023-03-05T02:37:13.549Z,182.53
2023-03-05T02:47:18.385Z,184.10
2023-03-05T02:57:22.111Z,191.83
2023-03-05T03:07:28.042Z,193.70
2023-03-05T03:17:31.499Z,197.47
2023-03-05T03:27:36.312Z,186.77
2023-03-05T03:37:39.916Z,183.03
2023-03-05T03:47:44.712Z,186.57
2023-03-05T03:57:48.149Z,181.23
2023-03-05T04:07:52.969Z,181.83
2023-03-05T04:17:56.372Z,186.77
2023-03-05T04:28:01.177Z,178.57
2023-03-05T04:38:04.753Z,183.07
2023-03-05T04:48:10.038Z,182.33
2023-03-05T04:58:13.448Z,184.37
2023-03-05T05:08:18.254Z,186.43
2023-03-05T05:18:22.273Z,185.33
2023-03-05T05:28:27.889Z,178.50
2023-03-05T05:38:31.396Z,194.60
2023-03-05T05:48:37.788Z,183.13
2023-03-05T05:58:43.358Z,190.20
2023-03-05T06:08:48.362Z,193.17
2023-03-05T06:18:52.607Z,188.47
2023-03-05T06:28:57.478Z,191.50
2023-03-05T06:39:01.138Z,195.60
2023-03-05T06:49:07.061Z,192.13
2023-03-05T06:59:12.293Z,198.43
2023-03-05T07:09:17.869Z,199.30
2023-03-05T07:19:21.302Z,196.37
2023-03-05T07:29:26.779Z,208.23
2023-03-05T07:39:30.230Z,206.10
2023-03-05T07:49:35.333Z,200.67
2023-03-05T07:59:40.532Z,208.37
2023-03-05T08:09:45.485Z,206.30
2023-03-05T08:19:48.874Z,214.20
2023-03-05T08:29:53.777Z,208.83
2023-03-05T08:39:57.530Z,206.20
2023-03-05T08:50:02.348Z,202.63
2023-03-05T09:00:07.464Z,210.13
2023-03-05T09:10:14.823Z,210.20
2023-03-05T09:20:18.920Z,213.10
2023-03-05T09:30:23.988Z,218.83
2023-03-05T09:40:34.129Z,219.07
2023-03-05T09:50:45.860Z,213.83
2023-03-05T10:00:52.180Z,218.03
2023-03-05T10:10:57.118Z,214.57
2023-03-05T10:21:03.196Z,216.87
2023-03-05T10:31:33.849Z,215.37
2023-03-05T10:41:48.369Z,217.03
2023-03-05T10:51:59.354Z,220.90
2023-03-05T11:02:09.018Z,217.33
2023-03-05T11:12:17.506Z,217.93
2023-03-05T11:22:23.252Z,211.27
2023-03-05T11:32:29.935Z,199.40
2023-03-05T11:42:33.966Z,209.33
2023-03-05T11:52:48.243Z,203.07
2023-03-05T12:02:55.956Z,200.37
2023-03-05T12:13:07.336Z,196.80
2023-03-05T12:23:16.051Z,187.47
2023-03-05T12:33:38.437Z,195.13
2023-03-05T12:43:42.550Z,198.20
2023-03-05T12:53:51.873Z,195.67
2023-03-05T13:03:59.658Z,207.93
2023-03-05T13:14:04.626Z,208.23
2023-03-05T13:24:19.435Z,203.50
2023-03-05T13:34:37.475Z,199.67
2023-03-05T13:44:56.981Z,201.80
2023-03-05T13:55:03.566Z,199.97
2023-03-05T14:05:16.685Z,205.97
2023-03-05T14:15:26.089Z,217.33
2023-03-05T14:25:38.525Z,227.67
2023-03-05T14:36:04.839Z,222.97
2023-03-05T14:46:10.352Z,211.23
2023-03-05T14:56:24.493Z,207.37
2023-03-05T15:06:34.208Z,198.87
2023-03-05T15:16:39.858Z,191.67
2023-03-05T15:26:43.617Z,193.33
2023-03-05T15:36:48.414Z,193.60
2023-03-05T15:46:56.920Z,191.93
2023-03-05T15:57:01.920Z,200.03
2023-03-05T16:07:06.243Z,202.77
2023-03-05T16:17:11.226Z,204.20
2023-03-05T16:27:14.658Z,200.73
2023-03-05T16:37:25.293Z,191.13
2023-03-05T16:47:28.911Z,192.47
2023-03-05T16:57:33.920Z,188.90
2023-03-05T17:07:37.378Z,202.17
2023-03-05T17:17:42.281Z,215.27
2023-03-05T17:27:45.837Z,206.97
2023-03-05T17:37:55.424Z,204.77
2023-03-05T17:47:59.353Z,198.27
2023-03-05T17:58:04.270Z,202.50
2023-03-05T18:08:08.308Z,199.50
2023-03-05T18:18:13.344Z,203.83
2023-03-05T18:28:17.634Z,196.67
2023-03-05T18:38:24.103Z,197.23
2023-03-05T18:48:27.570Z,197.30
2023-03-05T18:58:33.399Z,194.90
2023-03-05T19:08:37.510Z,194.50
2023-03-05T19:19:16.694Z,196.07
2023-03-05T19:29:20.365Z,203.30
2023-03-05T19:39:25.719Z,197.20
2023-03-05T19:49:29.520Z,202.63
2023-03-05T19:59:34.866Z,208.60
2023-03-05T20:09:38.427Z,204.50
2023-03-05T20:19:43.532Z,206.97
2023-03-05T20:29:47.093Z,212.87
2023-03-05T20:39:53.477Z,207.07
2023-03-05T20:49:56.987Z,201.97
2023-03-05T21:00:03.582Z,207.47
2023-03-05T21:10:08.510Z,205.50
2023-03-05T21:20:16.186Z,202.57
2023-03-05T21:30:21.036Z,196.90
2023-03-05T21:40:27.709Z,199.40
2023-03-05T21:50:33.426Z,196.83
2023-03-05T22:00:38.431Z,191.93
2023-03-05T22:10:42.978Z,193.83
2023-03-05T22:20:48.992Z,196.23
2023-03-05T22:30:52.450Z,194.43
2023-03-05T22:40:57.294Z,197.70
2023-03-05T22:51:00.694Z,194.13
2023-03-05T23:01:13.163Z,196.90
2023-03-05T23:11:16.589Z,196.53
2023-03-05T23:21:21.579Z,202.77
2023-03-05T23:31:25.012Z,199.37
2023-03-05T23:41:30.165Z,193.27
2023-03-05T23:51:33.777Z,197.00
